Overview Statistics Trail Chart Weather Telemetry Raw packets
 

This is the latest recevied weather packets stored in our database for station/object 9W2CHF-3. If no packets are shown the sender has not sent any weather packets the latest 10 day(s).

<< 9 10 11 12 13 14 15 >>
Time Temp. Humidity Pressure Rain* Wind** Luminosity Snow
1777462007 32.78° C 78% 1008.6 hPa - - - -
1777460807 33.33° C 78% 1008.2 hPa - - - -
1777459607 33.89° C 73% 1007.8 hPa - - - -
1777458407 37.22° C 60% 1007.8 hPa - - - -
1777457206 36.67° C 62% 1007.8 hPa - - - -
1777456006 36.11° C 64% 1007.8 hPa - - - -
1777454806 37.78° C 55% 1007.6 hPa - - - -
1777453606 39.44° C 47% 1007.4 hPa - - - -
1777452405 40° C 49% 1007.1 hPa - - - -
1777451205 40° C 49% 1007.2 hPa - - - -
1777450005 41.11° C 46% 1007.4 hPa - - - -
1777448805 40.56° C 48% 1007.8 hPa - - - -
1777447605 41.11° C 45% 1008.2 hPa - - - -
1777446405 40.56° C 47% 1008.6 hPa - - - -
1777445205 41.67° C 47% 1008.9 hPa - - - -
1777444007 40.56° C 48% 1009.3 hPa - - - -
1777442807 41.11° C 46% 1009.6 hPa - - - -
1777441607 40.56° C 46% 1009.7 hPa - - - -
1777440407 40.56° C 47% 1010.1 hPa - - - -
1777439207 41.11° C 47% 1010.3 hPa - - - -
1777438007 40° C 52% 1010.6 hPa - - - -
1777436806 40.56° C 49% 1011 hPa - - - -
1777435606 40° C 50% 1011.3 hPa - - - -
1777434406 38.89° C 51% 1011.5 hPa - - - -
1777433206 39.44° C 50% 1011.5 hPa - - - -

* Rain since midnight (hover to see other rain measurements)
** Current wind speed in m/s (hover to see current wind gust speed)